Time;durP1;ratioP1;P1;durP2;ratioP2;P2;SDS_P1;SDS_P2;PMS_P1;PMS_P2;Temp;Humidity;BMP_temperature;BMP_pressure;BME280_temperature;BME280_humidity;BME280_pressure;Samples;Min_cycle;Max_cycle;Signal;HPM_P1;HPM_P2
2022/01/06 04:01:20;;;;;;;2.30;0.97;;;4.30;83.60;;;;;;5718288;23;20484;-74
2022/01/06 04:03:47;;;;;;;2.30;1.10;;;4.30;83.90;;;;;;5035442;28;20443;-74
2022/01/06 04:06:14;;;;;;;3.17;1.10;;;4.40;83.80;;;;;;5035439;28;20807;-74
2022/01/06 04:08:41;;;;;;;2.23;1.00;;;4.40;83.70;;;;;;5035374;28;20443;-74
2022/01/06 04:11:08;;;;;;;3.00;1.37;;;4.30;83.80;;;;;;5035259;28;20513;-74
2022/01/06 04:13:34;;;;;;;3.93;1.57;;;4.20;84.20;;;;;;5059374;23;20569;-73
2022/01/06 04:16:05;;;;;;;2.80;1.63;;;4.20;84.70;;;;;;5034955;28;21007;-73
2022/01/06 04:18:33;;;;;;;3.00;1.33;;;4.10;84.70;;;;;;5035237;28;20483;-73
2022/01/06 04:21:00;;;;;;;2.70;1.27;;;4.00;85.10;;;;;;5034904;28;20439;-73
2022/01/06 04:23:27;;;;;;;2.60;1.30;;;4.00;85.40;;;;;;5034729;28;20883;-73
2022/01/06 04:25:53;;;;;;;3.23;1.10;;;3.90;85.50;;;;;;5035061;28;20498;-73
2022/01/06 04:28:20;;;;;;;3.50;1.30;;;3.80;86.00;;;;;;5034996;28;20439;-73
2022/01/06 04:30:47;;;;;;;2.40;1.00;;;3.90;85.90;;;;;;5034966;28;20444;-73
2022/01/06 04:33:13;;;;;;;3.57;1.60;;;4.10;86.10;;;;;;5034761;28;20474;-73
2022/01/06 04:35:41;;;;;;;3.00;1.57;;;4.10;85.30;;;;;;5034891;28;20447;-74
2022/01/06 04:38:09;;;;;;;2.50;1.10;;;4.20;85.60;;;;;;5034497;28;20793;-74
2022/01/06 04:40:36;;;;;;;3.17;1.27;;;4.30;85.20;;;;;;5034730;28;20443;-73
2022/01/06 04:43:02;;;;;;;2.50;1.40;;;4.30;84.60;;;;;;5034653;28;20497;-73
2022/01/06 04:45:29;;;;;;;2.70;1.30;;;4.20;85.10;;;;;;5034690;28;20449;-73
2022/01/06 04:47:56;;;;;;;2.30;1.10;;;4.10;85.30;;;;;;5034618;28;20452;-73
2022/01/06 04:50:23;;;;;;;3.23;1.30;;;3.80;86.30;;;;;;5034587;28;20443;-74
2022/01/06 04:52:51;;;;;;;2.83;1.20;;;3.90;87.00;;;;;;5034469;28;20513;-73
2022/01/06 04:55:17;;;;;;;3.07;1.33;;;4.20;86.70;;;;;;5034437;28;20525;-73
2022/01/06 04:57:44;;;;;;;3.67;1.40;;;4.20;86.10;;;;;;5034420;28;20451;-73
2022/01/06 05:00:12;;;;;;;2.50;1.13;;;4.10;85.70;;;;;;5034396;28;20455;-73
2022/01/06 05:02:38;;;;;;;2.50;1.10;;;4.10;85.80;;;;;;5034409;28;20443;-73
2022/01/06 05:05:06;;;;;;;2.80;1.20;;;4.00;85.90;;;;;;5033533;28;21112;-73
2022/01/06 05:07:33;;;;;;;2.60;1.20;;;4.10;86.10;;;;;;5034194;28;20456;-73
2022/01/06 05:10:01;;;;;;;3.40;1.03;;;4.10;86.10;;;;;;5034253;28;20447;-72
2022/01/06 05:12:27;;;;;;;3.60;1.47;;;4.20;86.10;;;;;;5034079;28;20540;-73
2022/01/06 05:14:54;;;;;;;2.67;1.40;;;4.10;85.70;;;;;;5033706;28;20479;-74
2022/01/06 05:17:21;;;;;;;3.27;1.77;;;4.20;85.80;;;;;;5034075;28;20485;-73
2022/01/06 05:19:47;;;;;;;2.60;1.23;;;4.10;85.90;;;;;;5034035;28;20517;-73
2022/01/06 05:22:14;;;;;;;2.40;1.10;;;4.10;85.80;;;;;;5033691;28;20506;-73
2022/01/06 05:24:41;;;;;;;2.60;1.10;;;4.10;86.10;;;;;;5033921;28;20463;-73
2022/01/06 05:27:10;;;;;;;3.23;1.57;;;4.00;86.30;;;;;;5033901;28;20521;-73
2022/01/06 05:29:37;;;;;;;2.40;1.20;;;4.00;86.40;;;;;;5033871;28;20447;-73
2022/01/06 05:32:04;;;;;;;2.37;1.30;;;4.00;86.20;;;;;;5033795;28;20447;-73
2022/01/06 05:34:31;;;;;;;2.40;1.20;;;3.90;86.60;;;;;;5033628;28;20499;-73
2022/01/06 05:36:58;;;;;;;3.33;1.10;;;3.80;86.80;;;;;;5033728;28;20525;-73
2022/01/06 05:39:24;;;;;;;2.20;0.90;;;3.60;87.40;;;;;;5033703;28;20857;-73
2022/01/06 05:41:51;;;;;;;2.50;1.10;;;3.80;87.80;;;;;;5033341;28;21020;-73
2022/01/06 05:44:19;;;;;;;4.50;1.60;;;3.80;87.10;;;;;;5033688;28;20471;-73
2022/01/06 05:46:47;;;;;;;2.77;1.10;;;3.80;87.50;;;;;;5033293;28;20455;-73
2022/01/06 05:49:14;;;;;;;2.30;1.10;;;3.90;87.30;;;;;;5033604;28;20454;-73
2022/01/06 05:51:41;;;;;;;2.67;1.10;;;3.80;86.90;;;;;;5033531;28;20493;-72
2022/01/06 05:54:07;;;;;;;3.13;1.30;;;3.50;87.00;;;;;;5033409;28;20483;-74
2022/01/06 05:56:34;;;;;;;2.70;1.40;;;3.50;88.20;;;;;;5033492;28;20502;-73
2022/01/06 05:59:01;;;;;;;3.37;1.40;;;3.60;87.80;;;;;;5033183;28;20938;-73
2022/01/06 06:01:29;;;;;;;2.60;1.30;;;3.50;88.00;;;;;;5033442;28;20450;-73
2022/01/06 06:03:56;;;;;;;2.97;1.10;;;3.50;87.90;;;;;;5033360;28;20472;-73
2022/01/06 06:06:22;;;;;;;2.57;1.23;;;3.60;88.40;;;;;;5033368;28;20498;-73
2022/01/06 06:08:49;;;;;;;2.67;1.47;;;3.80;87.80;;;;;;5033334;28;20447;-73
2022/01/06 06:11:16;;;;;;;2.17;0.90;;;3.90;87.20;;;;;;5033003;28;20869;-73
2022/01/06 06:13:42;;;;;;;2.57;1.20;;;3.90;87.00;;;;;;5033018;28;20491;-73
2022/01/06 06:16:09;;;;;;;2.30;1.13;;;4.10;86.40;;;;;;5033352;28;20432;-73
2022/01/06 06:18:37;;;;;;;2.37;1.00;;;4.20;85.90;;;;;;5035679;28;20443;-73
2022/01/06 06:21:03;;;;;;;3.00;1.30;;;4.20;85.70;;;;;;5037379;28;20524;-73
2022/01/06 06:23:30;;;;;;;2.40;1.20;;;4.20;85.20;;;;;;5037571;28;20463;-74
2022/01/06 06:25:57;;;;;;;2.40;1.10;;;4.30;85.10;;;;;;5037656;28;20454;-74
2022/01/06 06:28:23;;;;;;;2.30;1.07;;;4.00;85.50;;;;;;5037495;28;20458;-73
2022/01/06 06:30:50;;;;;;;2.40;1.00;;;3.80;86.10;;;;;;5037497;28;20447;-73
2022/01/06 06:33:17;;;;;;;2.97;1.47;;;3.60;87.10;;;;;;5037419;28;20486;-73
2022/01/06 06:35:45;;;;;;;2.70;1.33;;;3.40;87.80;;;;;;5037234;28;20934;-74
2022/01/06 06:38:12;;;;;;;2.90;1.63;;;3.50;88.40;;;;;;5037711;28;20454;-74
2022/01/06 06:40:38;;;;;;;3.10;1.50;;;3.50;87.90;;;;;;5037828;28;20443;-74
2022/01/06 06:43:05;;;;;;;2.67;1.23;;;3.60;88.10;;;;;;5037139;28;20957;-73
2022/01/06 06:45:32;;;;;;;3.40;1.70;;;3.60;87.70;;;;;;5037434;28;20459;-73
2022/01/06 06:47:59;;;;;;;2.60;1.20;;;3.60;87.90;;;;;;5037093;28;20792;-74
2022/01/06 06:50:26;;;;;;;2.50;1.00;;;3.80;87.60;;;;;;5037207;28;20792;-74
2022/01/06 06:52:54;;;;;;;2.40;1.10;;;3.80;87.10;;;;;;5037266;28;20458;-73
2022/01/06 06:55:20;;;;;;;2.43;1.20;;;3.80;87.40;;;;;;5037401;28;20474;-73
2022/01/06 06:57:47;;;;;;;2.70;1.23;;;4.00;87.00;;;;;;5037134;28;20444;-74
2022/01/06 07:00:16;;;;;;;2.57;1.10;;;4.10;86.40;;;;;;5037171;28;20447;-74
2022/01/06 07:02:43;;;;;;;3.53;1.47;;;4.10;86.00;;;;;;5037255;28;20459;-74
2022/01/06 07:05:10;;;;;;;2.20;1.00;;;4.20;85.80;;;;;;5037156;28;20517;-74
2022/01/06 07:07:37;;;;;;;2.40;1.30;;;4.10;85.30;;;;;;5037202;28;20436;-74
2022/01/06 07:10:06;;;;;;;2.30;1.13;;;4.10;85.50;;;;;;5036919;28;20446;-74
2022/01/06 07:12:33;;;;;;;2.57;1.10;;;4.00;85.90;;;;;;5036285;28;20957;-73
2022/01/06 07:15:02;;;;;;;2.77;1.33;;;4.00;85.80;;;;;;5035857;28;20490;-74
2022/01/06 07:17:29;;;;;;;2.30;1.10;;;4.10;86.00;;;;;;5036377;28;20454;-73
2022/01/06 07:19:55;;;;;;;2.40;1.40;;;4.00;85.70;;;;;;5036313;28;20863;-73
2022/01/06 07:22:22;;;;;;;3.27;1.20;;;4.00;85.80;;;;;;5036010;28;20894;-73
2022/01/06 07:24:49;;;;;;;2.40;1.03;;;4.10;86.10;;;;;;5035839;28;20966;-72
2022/01/06 07:27:17;;;;;;;2.30;1.10;;;4.10;85.80;;;;;;5036178;28;20447;-73
2022/01/06 07:29:43;;;;;;;2.60;1.30;;;4.20;85.70;;;;;;5035646;28;20451;-74
2022/01/06 07:32:10;;;;;;;2.40;1.00;;;4.20;85.40;;;;;;5039175;28;20451;-74
2022/01/06 07:34:37;;;;;;;2.97;1.23;;;4.20;85.20;;;;;;5039598;28;20491;-74
2022/01/06 07:37:04;;;;;;;2.50;1.30;;;4.20;85.50;;;;;;5035949;28;20497;-73
2022/01/06 07:39:31;;;;;;;2.50;1.20;;;4.20;85.10;;;;;;5035944;28;20501;-73
2022/01/06 07:41:58;;;;;;;2.30;1.10;;;4.20;85.00;;;;;;5035580;28;21008;-74
2022/01/06 07:44:26;;;;;;;2.40;1.20;;;4.30;85.10;;;;;;5035778;28;20467;-73
2022/01/06 07:46:52;;;;;;;2.50;1.40;;;4.40;85.00;;;;;;5039796;28;20451;-73
2022/01/06 07:49:19;;;;;;;2.70;1.30;;;4.40;84.70;;;;;;5041315;28;20814;-74
2022/01/06 07:51:46;;;;;;;2.70;1.53;;;4.40;84.30;;;;;;5036104;28;20447;-73
2022/01/06 07:54:13;;;;;;;3.00;1.30;;;4.50;84.30;;;;;;5035498;28;20532;-73
2022/01/06 07:56:39;;;;;;;2.50;1.27;;;4.50;84.40;;;;;;5035582;28;20862;-72
2022/01/06 07:59:07;;;;;;;3.67;1.60;;;4.50;84.00;;;;;;5035594;28;20871;-72
2022/01/06 08:01:35;;;;;;;2.40;1.20;;;4.60;84.00;;;;;;5035501;28;20447;-72
2022/01/06 08:04:02;;;;;;;2.60;1.40;;;4.60;83.80;;;;;;5035420;28;20463;-73
2022/01/06 08:06:29;;;;;;;3.63;1.40;;;4.70;83.70;;;;;;5035418;28;20452;-73
2022/01/06 08:08:56;;;;;;;2.40;1.30;;;4.70;83.40;;;;;;5035042;28;20861;-74
2022/01/06 08:11:22;;;;;;;2.90;1.30;;;4.60;83.20;;;;;;5035015;28;21048;-73
2022/01/06 08:13:49;;;;;;;2.40;1.10;;;4.50;83.20;;;;;;5034754;28;20990;-73
2022/01/06 08:16:16;;;;;;;2.60;1.10;;;4.60;83.40;;;;;;5035238;28;20451;-72
2022/01/06 08:18:44;;;;;;;2.43;1.33;;;4.70;83.20;;;;;;5035202;28;20610;-72
2022/01/06 08:21:10;;;;;;;4.77;1.37;;;4.80;82.50;;;;;;5035160;28;20498;-72
2022/01/06 08:23:37;;;;;;;2.50;1.40;;;4.70;82.50;;;;;;5035113;28;20518;-73
2022/01/06 08:26:05;;;;;;;2.50;1.40;;;4.80;82.50;;;;;;5035043;28;20447;-73
2022/01/06 08:28:31;;;;;;;2.60;1.60;;;4.90;82.50;;;;;;5035036;28;20462;-74
2022/01/06 08:30:58;;;;;;;2.33;1.00;;;5.10;82.10;;;;;;5035044;28;20439;-74
2022/01/06 08:33:25;;;;;;;2.60;1.17;;;5.10;81.40;;;;;;5034722;28;20521;-74
2022/01/06 08:35:53;;;;;;;2.60;1.20;;;5.30;81.20;;;;;;5034903;28;20455;-73
2022/01/06 08:38:20;;;;;;;2.60;1.20;;;5.60;80.70;;;;;;5034849;28;20509;-73
2022/01/06 08:40:47;;;;;;;3.33;1.70;;;5.90;79.80;;;;;;5033878;28;20512;-73
2022/01/06 08:43:14;;;;;;;2.73;1.33;;;6.00;79.00;;;;;;5034652;28;20812;-73
2022/01/06 08:45:41;;;;;;;3.53;1.40;;;6.10;78.40;;;;;;5034678;28;20451;-73
2022/01/06 08:48:08;;;;;;;3.83;1.47;;;6.10;78.00;;;;;;5034275;28;20861;-72
2022/01/06 08:50:35;;;;;;;2.43;1.10;;;6.10;77.50;;;;;;5034565;28;20451;-72
2022/01/06 08:53:03;;;;;;;2.90;1.30;;;6.30;77.80;;;;;;5034487;28;20451;-72
2022/01/06 08:55:30;;;;;;;2.40;1.10;;;6.40;77.50;;;;;;5034443;28;20533;-72
2022/01/06 08:57:57;;;;;;;2.50;1.33;;;6.20;77.30;;;;;;5034411;28;20497;-72
2022/01/06 09:00:24;;;;;;;2.30;1.00;;;6.30;77.80;;;;;;5034358;28;20455;-72
2022/01/06 09:02:50;;;;;;;2.50;1.33;;;6.50;77.60;;;;;;5034353;28;20443;-72
2022/01/06 09:05:17;;;;;;;2.60;1.10;;;6.80;76.30;;;;;;5034239;28;20534;-73
2022/01/06 09:07:44;;;;;;;2.93;1.20;;;6.80;75.40;;;;;;5034279;28;20447;-73
2022/01/06 09:10:12;;;;;;;2.50;1.10;;;7.10;75.50;;;;;;5034216;28;20443;-73
2022/01/06 09:12:39;;;;;;;2.60;1.00;;;7.20;75.00;;;;;;5034170;28;20439;-73
2022/01/06 09:15:08;;;;;;;2.47;1.20;;;7.20;74.00;;;;;;5033685;28;20495;-73
2022/01/06 09:17:36;;;;;;;2.60;1.30;;;6.90;74.90;;;;;;5034183;28;20494;-74
2022/01/06 09:20:03;;;;;;;3.50;1.57;;;6.90;75.40;;;;;;5034312;28;20440;-73
2022/01/06 09:22:30;;;;;;;3.03;1.30;;;6.80;75.40;;;;;;5034005;28;20455;-73
2022/01/06 09:24:57;;;;;;;2.60;1.30;;;6.60;75.90;;;;;;5033877;28;20467;-73
2022/01/06 09:27:25;;;;;;;3.10;1.30;;;6.20;76.70;;;;;;5033903;28;20490;-73
2022/01/06 09:29:52;;;;;;;2.70;1.30;;;5.90;77.90;;;;;;5033897;28;20478;-73
2022/01/06 09:32:20;;;;;;;2.80;1.20;;;5.90;78.60;;;;;;5033856;28;20449;-73
2022/01/06 09:34:46;;;;;;;3.27;1.80;;;5.90;78.50;;;;;;5033631;28;20478;-73
2022/01/06 09:37:14;;;;;;;2.67;1.30;;;6.00;78.30;;;;;;5033792;28;20447;-72
2022/01/06 09:39:41;;;;;;;3.97;2.63;;;6.00;77.90;;;;;;5033732;28;20447;-73
2022/01/06 09:42:09;;;;;;;3.00;1.70;;;5.90;78.00;;;;;;5033701;28;20554;-72
2022/01/06 09:44:38;;;;;;;2.57;1.40;;;6.10;77.80;;;;;;5033602;28;20510;-73
2022/01/06 09:47:06;;;;;;;2.80;1.30;;;6.30;77.90;;;;;;5033641;28;20447;-73
2022/01/06 09:49:37;;;;;;;3.60;1.37;;;6.60;77.50;;;;;;5033604;28;20501;-73
2022/01/06 09:52:04;;;;;;;3.47;1.23;;;6.80;76.80;;;;;;5033484;28;20436;-73
2022/01/06 09:54:31;;;;;;;3.80;1.23;;;6.80;75.30;;;;;;5033472;28;20496;-73
2022/01/06 09:56:58;;;;;;;2.80;1.30;;;6.40;75.00;;;;;;5033630;28;20451;-72
2022/01/06 09:59:25;;;;;;;2.70;1.40;;;6.30;76.00;;;;;;5033251;28;20487;-73
2022/01/06 10:01:53;;;;;;;2.90;1.50;;;6.40;76.00;;;;;;5033460;28;20847;-71
2022/01/06 10:04:24;;;;;;;3.37;1.77;;;6.50;75.40;;;;;;5033313;28;20539;-72
2022/01/06 10:07:00;;;;;;;3.33;1.33;;;6.60;75.30;;;;;;5033446;28;20435;-72
2022/01/06 10:09:27;;;;;;;3.80;1.20;;;6.60;74.30;;;;;;5033396;28;20432;-72
2022/01/06 10:11:56;;;;;;;3.63;1.13;;;6.60;74.50;;;;;;5033315;28;20505;-72
2022/01/06 10:14:31;;;;;;;2.90;1.10;;;6.70;74.60;;;;;;5151893;23;20533;-76
2022/01/06 10:17:00;;;;;;;3.33;1.23;;;6.80;74.00;;;;;;5033312;28;20534;-76
2022/01/06 10:19:27;;;;;;;2.70;1.20;;;6.70;73.00;;;;;;5033254;28;20443;-76
2022/01/06 10:21:57;;;;;;;2.67;1.17;;;6.70;72.50;;;;;;5033240;28;20439;-76
2022/01/06 10:24:26;;;;;;;2.63;1.40;;;6.70;73.10;;;;;;5033204;28;20463;-76
2022/01/06 10:26:55;;;;;;;3.23;1.00;;;6.80;73.70;;;;;;5033173;28;20450;-76
2022/01/06 10:29:22;;;;;;;3.27;1.30;;;6.90;73.70;;;;;;5033170;28;20444;-76
2022/01/06 10:31:49;;;;;;;2.97;1.20;;;6.80;72.90;;;;;;5033160;28;20443;-76
2022/01/06 10:34:17;;;;;;;3.40;1.87;;;6.80;73.60;;;;;;5032983;28;20490;-76
2022/01/06 10:36:48;;;;;;;3.10;1.43;;;6.90;73.80;;;;;;5033089;28;20447;-76
2022/01/06 10:39:15;;;;;;;3.30;1.73;;;6.90;73.60;;;;;;5033112;28;20495;-76
2022/01/06 10:41:42;;;;;;;3.70;1.37;;;7.00;73.30;;;;;;5033030;28;20447;-76
2022/01/06 10:44:13;;;;;;;3.13;1.30;;;7.00;73.10;;;;;;5032742;28;20509;-76
2022/01/06 10:46:42;;;;;;;2.50;1.10;;;7.10;72.50;;;;;;5033134;28;20805;-76
2022/01/06 10:49:12;;;;;;;3.53;1.60;;;7.00;72.90;;;;;;5033038;28;20451;-76
2022/01/06 10:51:44;;;;;;;2.67;1.20;;;7.00;73.80;;;;;;5033188;28;20497;-76
2022/01/06 10:54:15;;;;;;;3.00;1.40;;;7.20;73.30;;;;;;5032562;28;20464;-76
2022/01/06 10:56:42;;;;;;;2.67;1.10;;;7.40;72.20;;;;;;5032616;28;21026;-76
2022/01/06 10:59:08;;;;;;;2.60;1.27;;;7.50;71.60;;;;;;5032858;28;20505;-75
2022/01/06 11:01:36;;;;;;;3.20;1.20;;;7.40;71.00;;;;;;5032891;28;20451;-76
2022/01/06 11:04:04;;;;;;;2.80;1.20;;;7.50;71.20;;;;;;5034159;28;20475;-76
2022/01/06 11:06:31;;;;;;;4.00;1.30;;;7.60;71.60;;;;;;5036552;28;20450;-76
2022/01/06 11:09:00;;;;;;;4.10;1.60;;;7.50;70.20;;;;;;5036583;28;20475;-76
2022/01/06 11:11:44;;;;;;;3.47;1.50;;;7.30;69.70;;;;;;5036185;28;20964;-75
2022/01/06 11:14:15;;;;;;;4.43;1.67;;;7.10;70.00;;;;;;5036164;28;20927;-76
2022/01/06 11:16:43;;;;;;;3.13;1.50;;;7.00;70.50;;;;;;5036176;28;20918;-76
2022/01/06 11:19:11;;;;;;;2.67;1.43;;;7.00;70.60;;;;;;5036407;28;20443;-76
2022/01/06 11:21:40;;;;;;;3.40;1.43;;;6.80;71.10;;;;;;5036002;28;20961;-76
2022/01/06 11:24:13;;;;;;;3.40;1.50;;;6.70;71.60;;;;;;5036259;28;20566;-76
2022/01/06 11:26:40;;;;;;;3.63;1.37;;;6.80;71.70;;;;;;5036386;28;20490;-74
2022/01/06 11:29:08;;;;;;;2.80;1.20;;;6.90;71.30;;;;;;5036163;28;20455;-76
2022/01/06 11:31:40;;;;;;;3.73;2.00;;;6.90;71.70;;;;;;5035856;28;20952;-75
2022/01/06 11:34:15;;;;;;;3.73;1.53;;;7.00;71.30;;;;;;5035959;28;20471;-76
2022/01/06 11:36:43;;;;;;;2.70;1.17;;;7.20;71.20;;;;;;5036585;28;20509;-76
2022/01/06 11:39:23;;;;;;;2.80;1.30;;;7.40;71.10;;;;;;5035895;28;20447;-76
2022/01/06 11:41:52;;;;;;;3.17;1.27;;;7.60;71.70;;;;;;5035738;28;20774;-77
2022/01/06 11:44:22;;;;;;;2.90;1.10;;;7.80;70.20;;;;;;5035774;28;20475;-77
2022/01/06 11:46:51;;;;;;;2.40;1.07;;;8.00;69.40;;;;;;5035868;28;20509;-76
2022/01/06 11:49:31;;;;;;;2.90;1.20;;;8.10;67.80;;;;;;5035829;28;20451;-77
2022/01/06 11:52:05;;;;;;;2.87;1.47;;;8.10;67.20;;;;;;5035863;28;20427;-77
2022/01/06 11:54:33;;;;;;;2.90;1.27;;;8.00;67.20;;;;;;5035742;28;20517;-76
2022/01/06 11:57:00;;;;;;;3.53;1.37;;;8.10;68.00;;;;;;5035747;28;20820;-76
2022/01/06 11:59:31;;;;;;;3.47;2.13;;;8.20;67.20;;;;;;5035660;28;20447;-76
2022/01/06 12:01:58;;;;;;;3.23;1.20;;;8.00;67.40;;;;;;5036176;28;20934;-77
2022/01/06 12:04:26;;;;;;;4.57;2.10;;;8.00;67.40;;;;;;5036960;28;20537;-76
2022/01/06 12:07:04;;;;;;;3.30;1.50;;;7.90;67.70;;;;;;5037575;28;20467;-76
2022/01/06 12:09:30;;;;;;;3.00;1.30;;;7.80;66.90;;;;;;5037293;28;20439;-77
2022/01/06 12:12:06;;;;;;;3.60;1.37;;;7.60;67.60;;;;;;5037036;28;20510;-76
2022/01/06 12:14:34;;;;;;;3.57;1.57;;;7.60;67.60;;;;;;5036647;28;20511;-76
2022/01/06 12:17:05;;;;;;;4.20;1.60;;;7.50;68.00;;;;;;5036590;28;20477;-77
2022/01/06 12:19:32;;;;;;;2.97;1.30;;;7.60;68.00;;;;;;5036287;28;20447;-76
2022/01/06 12:21:59;;;;;;;2.80;1.10;;;7.80;68.90;;;;;;5036483;28;20455;-74
2022/01/06 12:24:26;;;;;;;2.97;1.30;;;9.20;68.00;;;;;;5035825;28;20471;-77
2022/01/06 12:26:53;;;;;;;3.37;1.27;;;11.90;61.40;;;;;;5035983;28;20946;-76
2022/01/06 12:29:25;;;;;;;2.60;1.03;;;14.90;54.20;;;;;;5036032;28;20478;-77
2022/01/06 12:32:02;;;;;;;2.50;1.10;;;18.30;47.20;;;;;;5036095;28;20439;-77
2022/01/06 12:34:29;;;;;;;3.63;1.30;;;21.40;41.20;;;;;;5035866;28;20806;-77
2022/01/06 12:36:55;;;;;;;3.00;1.20;;;23.00;38.20;;;;;;5035889;28;20444;-78
2022/01/06 12:39:23;;;;;;;3.00;1.10;;;23.80;36.70;;;;;;5036630;28;20452;-78
2022/01/06 12:41:52;;;;;;;2.70;1.13;;;24.80;35.00;;;;;;5036771;28;20455;-76
2022/01/06 12:44:21;;;;;;;2.80;1.20;;;26.50;33.50;;;;;;5036381;28;20544;-76
2022/01/06 12:46:49;;;;;;;2.67;0.97;;;27.60;31.10;;;;;;5036521;28;20444;-78
2022/01/06 12:49:16;;;;;;;4.13;1.13;;;26.30;31.60;;;;;;5038428;28;20463;-79
2022/01/06 12:51:45;;;;;;;3.00;1.10;;;24.20;32.60;;;;;;5037058;28;20455;-78
2022/01/06 12:54:16;;;;;;;2.60;1.00;;;22.60;35.00;;;;;;5037869;28;20467;-77
2022/01/06 12:56:44;;;;;;;3.90;1.40;;;20.80;37.20;;;;;;5038005;28;20498;-78
2022/01/06 12:59:13;;;;;;;2.97;1.20;;;19.60;39.80;;;;;;5037544;28;20450;-78
2022/01/06 13:01:43;;;;;;;3.83;1.23;;;20.20;39.20;;;;;;5037760;28;20451;-77
2022/01/06 13:04:11;;;;;;;3.20;1.23;;;21.40;38.20;;;;;;5037083;28;20463;-79
2022/01/06 13:06:39;;;;;;;3.07;1.57;;;21.40;36.70;;;;;;5037423;28;20451;-78
2022/01/06 13:09:17;;;;;;;3.30;1.30;;;20.40;38.10;;;;;;5036584;28;20825;-79
2022/01/06 13:11:48;;;;;;;2.83;1.60;;;19.40;40.50;;;;;;5036248;28;20454;-77
2022/01/06 13:14:28;;;;;;;2.60;1.37;;;20.60;39.20;;;;;;5035901;28;20479;-78
2022/01/06 13:17:07;;;;;;;3.50;1.40;;;22.60;37.30;;;;;;5037702;28;20545;-79
2022/01/06 13:19:35;;;;;;;3.07;1.27;;;24.50;34.80;;;;;;5036375;28;20443;-78
2022/01/06 13:22:05;;;;;;;3.00;1.20;;;25.60;34.00;;;;;;5036434;28;20454;-78
2022/01/06 13:24:34;;;;;;;2.60;1.10;;;26.40;32.50;;;;;;5037719;28;20481;-79
2022/01/06 13:27:03;;;;;;;2.50;1.00;;;27.60;31.00;;;;;;5038158;28;20451;-77
2022/01/06 13:29:33;;;;;;;3.07;1.37;;;28.40;30.10;;;;;;5037776;28;20447;-79
2022/01/06 13:32:08;;;;;;;2.80;1.20;;;27.60;30.20;;;;;;5038941;28;20454;-79
2022/01/06 13:34:37;;;;;;;3.80;1.60;;;27.30;31.00;;;;;;5037780;28;20450;-79
2022/01/06 13:37:07;;;;;;;3.10;1.30;;;26.60;30.90;;;;;;5037905;28;20487;-79
2022/01/06 13:39:36;;;;;;;2.70;1.20;;;25.70;32.10;;;;;;5034491;28;20435;-78
2022/01/06 13:42:04;;;;;;;3.03;1.20;;;25.10;33.00;;;;;;5033384;28;20973;-78
2022/01/06 13:44:31;;;;;;;2.50;1.10;;;25.50;33.30;;;;;;5033720;28;20545;-78
2022/01/06 13:47:07;;;;;;;2.80;1.10;;;26.50;31.70;;;;;;5033658;28;20546;-78
2022/01/06 13:52:22;;;;;;;2.77;1.20;;;28.30;28.60;;;;;;5033715;28;20411;-78
2022/01/06 13:54:49;;;;;;;2.30;0.90;;;29.10;27.00;;;;;;5033496;28;20462;-78
2022/01/06 13:57:15;;;;;;;2.40;0.93;;;27.80;27.60;;;;;;5033306;28;21016;-78
2022/01/06 13:59:43;;;;;;;2.57;1.00;;;26.20;29.00;;;;;;5033507;28;20454;-78
2022/01/06 14:02:11;;;;;;;2.83;1.33;;;25.60;29.70;;;;;;5033482;28;20531;-78
2022/01/06 14:04:40;;;;;;;2.57;0.97;;;24.40;30.40;;;;;;5033389;28;20563;-78
2022/01/06 14:07:07;;;;;;;2.50;1.07;;;22.40;32.20;;;;;;5033410;28;20498;-78
2022/01/06 14:09:34;;;;;;;2.40;0.80;;;21.60;33.30;;;;;;5033263;28;20448;-79
2022/01/06 14:12:01;;;;;;;2.80;0.90;;;20.80;34.00;;;;;;5033349;28;20458;-77
2022/01/06 14:14:28;;;;;;;2.60;0.90;;;19.60;36.00;;;;;;5033062;28;20475;-76
2022/01/06 14:16:55;;;;;;;2.87;1.10;;;17.90;37.30;;;;;;5033265;28;20483;-76
2022/01/06 14:19:22;;;;;;;3.00;1.10;;;16.50;39.50;;;;;;5033611;28;20455;-76
2022/01/06 14:21:50;;;;;;;5.67;4.30;;;15.20;41.60;;;;;;5033218;28;20478;-75
2022/01/06 14:24:17;;;;;;;9.60;8.60;;;14.00;44.10;;;;;;5032926;28;20884;-75
2022/01/06 14:26:43;;;;;;;5.40;3.83;;;13.20;45.80;;;;;;5032999;28;20537;-75
2022/01/06 14:29:10;;;;;;;5.90;4.60;;;12.50;47.90;;;;;;5033167;28;20493;-75
2022/01/06 14:31:37;;;;;;;7.63;6.50;;;11.60;49.80;;;;;;5033154;28;20482;-75
2022/01/06 14:34:03;;;;;;;11.47;9.17;;;11.20;50.80;;;;;;5032965;28;20502;-75
2022/01/06 14:36:30;;;;;;;3.90;2.00;;;10.80;51.80;;;;;;5033035;28;20483;-75
2022/01/06 14:38:58;;;;;;;3.07;1.43;;;10.60;52.50;;;;;;5034277;28;20454;-75
2022/01/06 14:41:25;;;;;;;3.23;1.50;;;10.20;53.10;;;;;;5036965;28;20451;-76
2022/01/06 14:43:51;;;;;;;3.07;1.10;;;10.00;53.90;;;;;;5036810;28;20467;-75
2022/01/06 14:46:18;;;;;;;2.70;1.10;;;9.90;54.60;;;;;;5036613;28;20934;-75
2022/01/06 14:48:47;;;;;;;2.80;1.13;;;9.70;55.00;;;;;;5036961;28;20487;-75
2022/01/06 14:51:14;;;;;;;2.70;1.20;;;9.40;55.90;;;;;;5036924;28;20459;-75
2022/01/06 14:53:41;;;;;;;2.70;1.13;;;9.10;56.50;;;;;;5036767;28;20451;-75
2022/01/06 14:56:09;;;;;;;2.63;1.20;;;9.00;57.40;;;;;;5036660;28;20533;-75
2022/01/06 14:58:36;;;;;;;2.50;0.93;;;8.90;57.70;;;;;;5036732;28;20447;-76
2022/01/06 15:01:05;;;;;;;2.87;1.00;;;8.50;58.30;;;;;;5036789;28;20462;-75
2022/01/06 15:03:31;;;;;;;3.03;1.20;;;8.20;59.70;;;;;;5036633;28;20503;-76
2022/01/06 15:05:58;;;;;;;2.97;1.20;;;8.10;60.30;;;;;;5036645;28;20443;-76
2022/01/06 15:08:25;;;;;;;2.87;1.30;;;8.10;61.00;;;;;;5036797;28;20516;-75
2022/01/06 15:10:52;;;;;;;2.73;1.30;;;8.10;60.90;;;;;;5036996;28;20446;-76
2022/01/06 15:13:21;;;;;;;3.97;1.60;;;8.10;61.10;;;;;;5036768;28;20526;-75
2022/01/06 15:15:48;;;;;;;3.77;1.40;;;8.00;61.40;;;;;;5035938;28;20527;-76
2022/01/06 15:18:14;;;;;;;2.80;1.43;;;8.00;61.50;;;;;;5036444;28;20466;-75
2022/01/06 15:20:41;;;;;;;3.13;1.30;;;7.90;62.00;;;;;;5036335;28;20489;-76
2022/01/06 15:23:08;;;;;;;3.80;1.40;;;7.80;62.50;;;;;;5036255;28;20443;-75
2022/01/06 15:25:35;;;;;;;5.17;1.83;;;7.90;63.00;;;;;;5036230;28;20471;-75
2022/01/06 15:28:02;;;;;;;3.83;2.00;;;7.90;63.00;;;;;;5036308;28;20454;-75
2022/01/06 15:30:30;;;;;;;3.20;1.77;;;7.90;63.10;;;;;;5036227;28;20862;-75
2022/01/06 15:32:57;;;;;;;3.20;1.83;;;7.90;63.50;;;;;;5036101;28;20443;-76
2022/01/06 15:35:25;;;;;;;2.97;1.90;;;7.90;63.30;;;;;;5036044;28;20555;-75
2022/01/06 15:37:52;;;;;;;3.70;1.70;;;7.90;63.60;;;;;;5035698;28;20474;-75
2022/01/06 15:40:20;;;;;;;3.30;2.07;;;7.80;63.60;;;;;;5035662;28;20943;-75
2022/01/06 15:42:48;;;;;;;3.80;2.70;;;7.90;63.80;;;;;;5035884;28;20447;-76
2022/01/06 15:45:15;;;;;;;3.17;2.03;;;7.90;63.50;;;;;;5035830;28;20513;-75
2022/01/06 15:47:43;;;;;;;3.27;1.77;;;7.80;63.30;;;;;;5035809;28;20435;-76
2022/01/06 15:50:11;;;;;;;4.17;2.10;;;7.80;63.70;;;;;;5035450;28;20447;-75
2022/01/06 15:52:38;;;;;;;3.60;2.00;;;7.70;64.70;;;;;;5035724;28;20485;-76
2022/01/06 15:55:06;;;;;;;3.90;2.40;;;7.60;64.90;;;;;;5035674;28;20459;-75
2022/01/06 15:57:33;;;;;;;3.03;1.97;;;7.60;65.20;;;;;;5035265;28;21010;-76
2022/01/06 16:00:06;;;;;;;5.20;2.13;;;7.50;65.70;;;;;;5035185;28;20462;-75
2022/01/06 16:05:18;;;;;;;5.93;2.43;;;7.30;66.40;;;;;;5035560;28;20493;-75
2022/01/06 16:07:46;;;;;;;3.90;1.70;;;7.20;66.70;;;;;;5035347;28;20962;-76
2022/01/06 16:10:14;;;;;;;3.20;1.73;;;7.20;67.20;;;;;;5035174;28;20949;-76
2022/01/06 16:12:41;;;;;;;4.60;2.00;;;7.10;67.20;;;;;;5035373;28;20451;-76
2022/01/06 16:15:09;;;;;;;5.13;2.90;;;7.10;67.30;;;;;;5036447;28;20491;-75
2022/01/06 16:17:36;;;;;;;4.30;3.20;;;7.00;67.50;;;;;;5035271;28;20479;-76
2022/01/06 16:20:04;;;;;;;3.53;2.70;;;7.00;67.80;;;;;;5034890;28;20820;-77
2022/01/06 16:22:33;;;;;;;3.87;2.40;;;6.90;67.60;;;;;;5035834;28;20498;-76
2022/01/06 16:25:02;;;;;;;5.23;3.00;;;6.80;67.20;;;;;;5035069;28;20472;-75
2022/01/06 16:27:29;;;;;;;5.13;3.70;;;6.70;67.30;;;;;;5035063;28;20447;-73
2022/01/06 16:30:04;;;;;;;3.20;2.37;;;6.60;67.60;;;;;;5035063;28;20451;-76
2022/01/06 16:32:30;;;;;;;5.93;4.03;;;6.50;68.20;;;;;;5035157;28;20427;-76
2022/01/06 16:34:57;;;;;;;5.10;4.60;;;6.40;68.30;;;;;;5034842;28;20471;-76
2022/01/06 16:37:24;;;;;;;4.80;4.27;;;6.30;68.70;;;;;;5034798;28;20894;-76
2022/01/06 16:39:53;;;;;;;4.33;3.53;;;6.30;69.10;;;;;;5034832;28;20455;-76
2022/01/06 16:42:20;;;;;;;4.43;3.10;;;6.20;69.30;;;;;;5034757;28;20501;-76
2022/01/06 16:44:47;;;;;;;4.90;4.40;;;6.20;69.20;;;;;;5034350;28;20979;-76
2022/01/06 16:47:14;;;;;;;5.77;4.20;;;6.10;69.20;;;;;;5034679;28;20608;-76
2022/01/06 16:49:41;;;;;;;5.80;4.47;;;6.10;69.30;;;;;;5034438;28;20936;-76
2022/01/06 16:52:08;;;;;;;5.07;3.40;;;6.00;69.50;;;;;;5034610;28;20447;-76
2022/01/06 16:54:35;;;;;;;4.97;3.13;;;6.00;69.60;;;;;;5034476;28;20549;-76
2022/01/06 16:57:04;;;;;;;4.10;2.90;;;5.90;69.80;;;;;;5034501;28;20537;-76
2022/01/06 16:59:31;;;;;;;4.53;3.23;;;5.80;69.90;;;;;;5034733;28;20447;-77
2022/01/06 17:01:58;;;;;;;5.77;4.20;;;5.70;70.30;;;;;;5033849;28;20506;-78
2022/01/06 17:04:25;;;;;;;5.90;3.20;;;5.60;70.40;;;;;;5034437;28;20474;-77